createdAt,value
2023-01-21T00:00:17.982Z,12.10
2023-01-21T00:01:16.418Z,12.19
2023-01-21T00:03:16.251Z,12.39
2023-01-21T00:04:16.257Z,12.69
2023-01-21T00:05:16.741Z,12.80
2023-01-21T00:06:16.337Z,12.5
2023-01-21T00:07:16.395Z,13.30
2023-01-21T00:08:16.176Z,13.19
2023-01-21T00:09:16.360Z,13.10
2023-01-21T00:10:16.738Z,13.30
2023-01-21T00:11:15.610Z,13.10
2023-01-21T00:13:16.372Z,12.89
2023-01-21T00:14:16.476Z,13.30
2023-01-21T00:15:16.815Z,13.89
2023-01-21T00:16:16.814Z,13
2023-01-21T00:17:16.613Z,13.39
2023-01-21T00:18:16.583Z,13.89
2023-01-21T00:19:17.098Z,13.69
2023-01-21T00:20:16.951Z,14.10
2023-01-21T00:21:16.499Z,14
2023-01-21T00:22:16.566Z,13.5
2023-01-21T00:23:16.412Z,14.19
2023-01-21T00:24:16.440Z,13.60
2023-01-21T00:25:16.852Z,13.5
2023-01-21T00:26:16.814Z,13.69
2023-01-21T00:27:16.274Z,14.10
2023-01-21T00:28:16.767Z,13.89
2023-01-21T00:29:16.842Z,13.19
2023-01-21T00:30:17.469Z,13.39
2023-01-21T00:31:16.757Z,13.69
2023-01-21T00:32:16.221Z,13.39
2023-01-21T00:33:16.023Z,13.19
2023-01-21T00:35:16.755Z,13.80
2023-01-21T00:36:16.579Z,13.69
2023-01-21T00:37:16.138Z,13.19
2023-01-21T00:38:16.027Z,13.10
2023-01-21T00:39:16.558Z,13.69
2023-01-21T00:40:16.597Z,14.30
2023-01-21T00:41:16.730Z,14
2023-01-21T00:42:16.494Z,13.69
2023-01-21T00:43:16.375Z,13.19
2023-01-21T00:44:16.519Z,13.39
2023-01-21T00:45:16.860Z,13.60
2023-01-21T00:46:16.489Z,13.39
2023-01-21T00:47:16.395Z,14
2023-01-21T00:48:16.345Z,13.69
2023-01-21T00:49:16.386Z,14.19
2023-01-21T00:50:16.711Z,14.10
2023-01-21T00:51:16.847Z,13.80
2023-01-21T00:52:16.477Z,14.10
2023-01-21T00:53:16.101Z,14.60
2023-01-21T00:54:16.194Z,14.39
2023-01-21T00:55:16.435Z,14.69
2023-01-21T00:56:16.288Z,14
2023-01-21T00:57:15.697Z,15.10
2023-01-21T00:58:16.202Z,15.19
2023-01-21T00:59:16.549Z,14.60
2023-01-21T01:00:17.542Z,15.39
2023-01-21T01:01:17.429Z,15
2023-01-21T01:02:16.656Z,15.69
2023-01-21T01:03:16.673Z,15.10
2023-01-21T01:04:16.310Z,15.39
2023-01-21T01:06:16.035Z,15.89
2023-01-21T01:07:16.193Z,14.80
2023-01-21T01:08:16.361Z,16
2023-01-21T01:09:16.464Z,16.70
2023-01-21T01:10:16.601Z,15.5
2023-01-21T01:11:16.115Z,15.39
2023-01-21T01:12:16.355Z,15.19
2023-01-21T01:13:16.078Z,14.89
2023-01-21T01:14:16.398Z,14.19
2023-01-21T01:15:18.179Z,15.10
2023-01-21T01:16:16.199Z,14.39
2023-01-21T01:17:16.335Z,14.19
2023-01-21T01:18:16.107Z,14.39
2023-01-21T01:19:16.303Z,14.60
2023-01-21T01:20:16.936Z,14.39
2023-01-21T01:21:16.393Z,14.69
2023-01-21T01:23:16.291Z,14
2023-01-21T01:24:16.299Z,13.69
2023-01-21T01:25:16.632Z,14.5
2023-01-21T01:26:16.222Z,14.89
2023-01-21T01:27:16.197Z,15.30
2023-01-21T01:28:16.105Z,13.89
2023-01-21T01:29:16.381Z,14.39
2023-01-21T01:30:16.795Z,14.89
2023-01-21T01:31:16.827Z,14.80
2023-01-21T01:32:16.717Z,14.69
2023-01-21T01:33:16.611Z,15
2023-01-21T01:34:16.565Z,14.89
2023-01-21T01:35:21.442Z,14.80
2023-01-21T01:36:16.248Z,14.60
2023-01-21T01:37:16.096Z,15.19
2023-01-21T01:38:16.234Z,14.10
2023-01-21T01:39:16.502Z,15.5
2023-01-21T01:40:16.705Z,14.89
2023-01-21T01:41:16.836Z,14.39
2023-01-21T01:42:16.461Z,14.19
2023-01-21T01:43:16.339Z,14.30
2023-01-21T01:44:16.247Z,14.39
2023-01-21T01:45:16.824Z,14.19
2023-01-21T01:46:16.719Z,14.5
2023-01-21T01:47:17.005Z,14.80
2023-01-21T01:48:16.256Z,14.30
2023-01-21T01:49:16.369Z,14
2023-01-21T01:50:16.487Z,15.10
2023-01-21T01:51:30.351Z,14
2023-01-21T01:52:16.521Z,14.10
2023-01-21T01:54:16.168Z,13.60
2023-01-21T01:55:16.404Z,13.19
2023-01-21T01:56:16.390Z,13.5
2023-01-21T01:57:16.403Z,14.39
2023-01-21T01:58:16.182Z,13.80
2023-01-21T02:00:17.255Z,14.39
2023-01-21T02:01:16.388Z,14.60
2023-01-21T02:02:16.360Z,13.60
2023-01-21T02:03:16.442Z,13.69
2023-01-21T02:04:16.605Z,13.60
2023-01-21T02:05:16.557Z,13.19
2023-01-21T02:06:16.328Z,13.60
2023-01-21T02:07:16.477Z,13.19
2023-01-21T02:09:16.571Z,13.89
2023-01-21T02:10:16.927Z,13.39
2023-01-21T02:11:16.385Z,13.69
2023-01-21T02:12:16.357Z,13.5
2023-01-21T02:13:16.313Z,13.10
2023-01-21T02:14:16.501Z,12.39
2023-01-21T02:15:16.670Z,13.10
2023-01-21T02:16:16.553Z,13.5
2023-01-21T02:17:16.432Z,12.69
2023-01-21T02:18:16.540Z,13.39
2023-01-21T02:19:16.572Z,12.89
2023-01-21T02:20:17.058Z,13.89
2023-01-21T02:21:16.520Z,13.39
2023-01-21T02:22:16.420Z,13.19
2023-01-21T02:23:16.434Z,13
2023-01-21T02:24:16.334Z,14
2023-01-21T02:25:16.550Z,14.19
2023-01-21T02:26:16.313Z,14.80
2023-01-21T02:27:16.235Z,13.5
2023-01-21T02:28:16.127Z,13.89
2023-01-21T02:30:17.122Z,13.30
2023-01-21T02:31:16.664Z,14.10
2023-01-21T02:32:16.249Z,13.80
2023-01-21T02:33:16.448Z,13.89
2023-01-21T02:34:16.283Z,14.10
2023-01-21T02:35:16.376Z,14.69
2023-01-21T02:36:16.305Z,14.19
2023-01-21T02:37:16.169Z,14.69
2023-01-21T02:38:16.855Z,14
2023-01-21T02:39:16.300Z,13.60
2023-01-21T02:41:16.671Z,13.69
2023-01-21T02:42:16.986Z,13.30
2023-01-21T02:43:16.603Z,13.60
2023-01-21T02:45:16.811Z,14
2023-01-21T02:46:16.682Z,14.10
2023-01-21T02:47:17.078Z,13
2023-01-21T02:48:16.257Z,13.19
2023-01-21T02:49:16.419Z,13.5
2023-01-21T02:50:16.747Z,13.89
2023-01-21T02:51:16.953Z,13.80
2023-01-21T02:52:16.588Z,14.80
2023-01-21T02:53:16.485Z,14.10
2023-01-21T02:54:16.618Z,13.60
2023-01-21T02:55:16.878Z,14
2023-01-21T02:56:16.260Z,13.89
2023-01-21T02:57:16.543Z,13.39
2023-01-21T02:58:16.373Z,13.5
2023-01-21T02:59:16.995Z,13.39
2023-01-21T03:00:17.434Z,13.5
2023-01-21T03:01:16.979Z,13.19
2023-01-21T03:03:16.409Z,12.60
2023-01-21T03:04:16.621Z,13
2023-01-21T03:06:16.487Z,13
2023-01-21T03:07:16.837Z,13.19
2023-01-21T03:08:16.715Z,12.69
2023-01-21T03:09:16.793Z,13.19
2023-01-21T03:10:16.974Z,12.69
2023-01-21T03:11:16.278Z,13.30
2023-01-21T03:12:16.261Z,13.19
2023-01-21T03:13:16.312Z,12.39
2023-01-21T03:14:16.253Z,12.5
2023-01-21T03:15:16.940Z,12.60
2023-01-21T03:16:16.903Z,12.89
2023-01-21T03:17:17.009Z,12.30
2023-01-21T03:18:16.210Z,13.30
2023-01-21T03:19:16.476Z,13.19
2023-01-21T03:20:16.423Z,12.5
2023-01-21T03:21:16.601Z,12.69
2023-01-21T03:22:16.426Z,13.19
2023-01-21T03:24:16.619Z,12.19
2023-01-21T03:25:16.202Z,12.89
2023-01-21T03:26:16.410Z,12.19
2023-01-21T03:27:16.446Z,13.39
2023-01-21T03:28:16.368Z,12.69
2023-01-21T03:29:16.450Z,12.80
2023-01-21T03:30:17.011Z,13.10
2023-01-21T03:31:16.306Z,13.19
2023-01-21T03:32:16.681Z,13.39
2023-01-21T03:33:16.812Z,13
2023-01-21T03:34:16.829Z,12.69
2023-01-21T03:35:16.693Z,12.5
2023-01-21T03:36:17.454Z,12.80
2023-01-21T03:37:16.461Z,12.89
2023-01-21T03:38:16.237Z,13.5
2023-01-21T03:39:16.490Z,13.30
2023-01-21T03:40:16.567Z,12.60
2023-01-21T03:41:16.899Z,12.89
2023-01-21T03:42:16.498Z,13.10
2023-01-21T03:43:16.542Z,12.80
2023-01-21T03:44:16.560Z,13
2023-01-21T03:45:16.633Z,12.30
2023-01-21T03:46:16.552Z,12
2023-01-21T03:47:16.772Z,11.89
2023-01-21T03:48:16.600Z,12.89
2023-01-21T03:49:16.360Z,12.80
2023-01-21T03:50:16.576Z,12.19
2023-01-21T03:51:16.258Z,13
2023-01-21T03:52:16.135Z,12.80
2023-01-21T03:53:16.284Z,12.69
2023-01-21T03:54:16.383Z,12.10
2023-01-21T03:55:16.465Z,13.10
2023-01-21T03:56:16.342Z,12.89
2023-01-21T03:57:16.577Z,12.39
2023-01-21T03:58:16.374Z,13.10
2023-01-21T03:59:16.438Z,12.39
2023-01-21T04:00:17.174Z,12.60
2023-01-21T04:01:16.576Z,12.19
2023-01-21T04:02:16.265Z,12.69
2023-01-21T04:03:16.439Z,12.5
2023-01-21T04:04:16.475Z,12.30
2023-01-21T04:05:16.624Z,11.89
2023-01-21T04:06:16.436Z,12.5
2023-01-21T04:07:16.259Z,11.80
2023-01-21T04:08:16.416Z,12.5
2023-01-21T04:09:16.770Z,12.30
2023-01-21T04:10:17.353Z,11.60
2023-01-21T04:11:16.594Z,11.5
2023-01-21T04:12:16.921Z,12.39
2023-01-21T04:13:16.690Z,11.5
2023-01-21T04:14:16.737Z,11.89
2023-01-21T04:15:16.565Z,13.39
2023-01-21T04:16:16.934Z,12.89
2023-01-21T04:17:16.731Z,12.19
2023-01-21T04:18:17.459Z,12.69
2023-01-21T04:20:16.853Z,12.39
2023-01-21T04:21:16.599Z,12.19
2023-01-21T04:22:17.293Z,12
2023-01-21T04:23:16.950Z,11.89
2023-01-21T04:24:16.783Z,11.60
2023-01-21T04:25:16.945Z,11.39
2023-01-21T04:26:17.011Z,10.69
2023-01-21T04:27:16.749Z,11.10
2023-01-21T04:28:17.362Z,10.80
2023-01-21T04:29:16.654Z,10.89
2023-01-21T04:30:17.863Z,11.19
2023-01-21T04:31:16.809Z,11
2023-01-21T04:32:16.407Z,10.80
2023-01-21T04:33:16.713Z,10.89
2023-01-21T04:34:16.761Z,11
2023-01-21T04:35:17.386Z,11.39
2023-01-21T04:37:17.114Z,11
2023-01-21T04:38:16.958Z,11.5
2023-01-21T04:39:16.593Z,11.39
2023-01-21T04:40:16.852Z,12
2023-01-21T04:41:16.529Z,11.19
2023-01-21T04:42:16.479Z,11.69
2023-01-21T04:43:16.651Z,12.10
2023-01-21T04:44:16.181Z,12
2023-01-21T04:45:16.430Z,11.30
2023-01-21T04:46:16.606Z,11.80
2023-01-21T04:48:16.755Z,11.60
2023-01-21T04:49:16.304Z,11.5
2023-01-21T04:50:16.386Z,12.39
2023-01-21T04:51:16.766Z,10.60
2023-01-21T04:52:16.677Z,11.19
2023-01-21T04:53:16.445Z,11.60
2023-01-21T04:54:16.647Z,12.10
2023-01-21T04:55:16.943Z,11.5
2023-01-21T04:56:16.543Z,11.10
2023-01-21T04:57:16.123Z,11.60
2023-01-21T04:58:15.963Z,11.30
2023-01-21T04:59:16.915Z,11.69
2023-01-21T05:00:18.189Z,11.60
2023-01-21T05:01:16.221Z,10.69
2023-01-21T05:02:16.428Z,11.39
2023-01-21T05:03:16.879Z,11.10
2023-01-21T05:04:16.660Z,11.39
2023-01-21T05:05:16.691Z,11.30
2023-01-21T05:06:16.323Z,10.89
2023-01-21T05:07:16.169Z,11.30
2023-01-21T05:08:16.299Z,11.5
2023-01-21T05:09:16.211Z,11.69
2023-01-21T05:10:17.058Z,11.60
2023-01-21T05:11:16.201Z,10.80
2023-01-21T05:12:16.197Z,11.5
2023-01-21T05:13:16.222Z,11.19
2023-01-21T05:14:16.295Z,10.69
2023-01-21T05:15:16.611Z,11.10
2023-01-21T05:16:16.975Z,11.19
2023-01-21T05:17:16.846Z,11.30
2023-01-21T05:18:16.466Z,10.30
2023-01-21T05:19:16.739Z,10.80
2023-01-21T05:20:17.319Z,10.60
2023-01-21T05:21:16.593Z,10.89
2023-01-21T05:22:16.887Z,11.10
2023-01-21T05:23:16.904Z,10.80
2023-01-21T05:24:16.761Z,11.69
2023-01-21T05:25:17.040Z,10.89
2023-01-21T05:26:16.055Z,11.19
2023-01-21T05:27:16.753Z,11.39
2023-01-21T05:28:16.898Z,11.89
2023-01-21T05:29:16.872Z,11.39
2023-01-21T05:30:17.404Z,11
2023-01-21T05:31:16.656Z,10.69
2023-01-21T05:32:16.746Z,10.89
2023-01-21T05:33:16.923Z,10.69
2023-01-21T05:34:16.996Z,11.10
2023-01-21T05:35:16.549Z,11.19
2023-01-21T05:37:16.381Z,10.80
2023-01-21T05:38:16.715Z,11
2023-01-21T05:39:16.818Z,10.89
2023-01-21T05:40:17.117Z,10.19
2023-01-21T05:41:16.346Z,10.80
2023-01-21T05:42:16.391Z,11.5
2023-01-21T05:43:16.939Z,11.80
2023-01-21T05:44:17.738Z,11.19
2023-01-21T05:45:17.127Z,11.10
2023-01-21T05:46:16.257Z,11.5
2023-01-21T05:47:16.585Z,11.60
2023-01-21T05:48:16.625Z,11.69
2023-01-21T05:49:16.582Z,11.80
2023-01-21T05:50:17.242Z,11.39
2023-01-21T05:51:16.684Z,11.69
2023-01-21T05:52:16.563Z,11.10
2023-01-21T05:53:17.062Z,10.80
2023-01-21T05:54:16.593Z,11.89
2023-01-21T05:55:16.761Z,11.5
2023-01-21T05:56:16.012Z,11.89
2023-01-21T05:57:16.214Z,11
2023-01-21T05:58:16.271Z,11.39
2023-01-21T06:00:17.749Z,12.19
2023-01-21T06:01:16.922Z,11.39
2023-01-21T06:02:16.854Z,11.30
2023-01-21T06:03:16.988Z,11.10
2023-01-21T06:04:16.361Z,11.30
2023-01-21T06:05:16.903Z,11.10
2023-01-21T06:06:16.928Z,11.5
2023-01-21T06:07:16.919Z,11
2023-01-21T06:08:16.993Z,11.80
2023-01-21T06:09:16.937Z,11.30
2023-01-21T06:10:17.345Z,11.10
2023-01-21T06:11:16.531Z,10.5
2023-01-21T06:12:16.697Z,11.19
2023-01-21T06:13:16.681Z,11
2023-01-21T06:14:17.067Z,11.10
2023-01-21T06:15:16.977Z,11.39
2023-01-21T06:16:16.089Z,11.10
2023-01-21T06:17:16.674Z,11
2023-01-21T06:18:16.542Z,11.39
2023-01-21T06:19:16.985Z,11.19
2023-01-21T06:20:16.692Z,11.30
2023-01-21T06:21:16.407Z,10.89
2023-01-21T06:23:21.370Z,11.5
2023-01-21T06:24:16.572Z,11
2023-01-21T06:25:17.138Z,11.10
2023-01-21T06:26:16.140Z,11.30
2023-01-21T06:27:16.348Z,11.19
2023-01-21T06:28:16.872Z,10.5
2023-01-21T06:29:16.276Z,11
2023-01-21T06:30:17.238Z,11.10
2023-01-21T06:31:16.689Z,11
2023-01-21T06:32:16.644Z,10.30
2023-01-21T06:33:16.634Z,11.10
2023-01-21T06:34:17.071Z,10.89
2023-01-21T06:36:16.803Z,11.80
2023-01-21T06:37:17.126Z,11.19
2023-01-21T06:38:16.080Z,11.69
2023-01-21T06:39:16.658Z,11.30
2023-01-21T06:40:17.426Z,10.69
2023-01-21T06:41:16.741Z,11.39
2023-01-21T06:42:17.130Z,12
2023-01-21T06:43:16.478Z,11.19
2023-01-21T06:45:17.247Z,11.10
2023-01-21T06:47:16.696Z,11.5
2023-01-21T06:48:17.073Z,11.69
2023-01-21T06:49:16.543Z,11.10
2023-01-21T06:50:17.192Z,11.19
2023-01-21T06:51:16.844Z,10.80
2023-01-21T06:52:16.158Z,11.60
2023-01-21T06:53:16.453Z,11.30
2023-01-21T06:54:16.468Z,11
2023-01-21T06:55:16.507Z,11.69
2023-01-21T06:56:16.781Z,11.10
2023-01-21T06:57:16.871Z,12.39
2023-01-21T06:58:16.881Z,12.80
2023-01-21T06:59:16.171Z,12.60
2023-01-21T07:00:17.614Z,12.69
2023-01-21T07:01:16.933Z,13.30
2023-01-21T07:02:16.337Z,12.60
2023-01-21T07:03:16.924Z,12.39
2023-01-21T07:04:16.290Z,12.5
2023-01-21T07:05:17.596Z,12.89
2023-01-21T07:06:16.432Z,13.10
2023-01-21T07:07:16.862Z,12.89
2023-01-21T07:08:16.492Z,12.10
2023-01-21T07:09:17.080Z,12.89
2023-01-21T07:10:16.917Z,13.19
2023-01-21T07:12:16.218Z,13.89
2023-01-21T07:13:16.550Z,12.10
2023-01-21T07:14:17.128Z,12.69
2023-01-21T07:15:17.167Z,12.89
2023-01-21T07:16:16.809Z,12.80
2023-01-21T07:17:16.411Z,13.19
2023-01-21T07:18:16.849Z,13
2023-01-21T07:19:16.496Z,12.39
2023-01-21T07:20:16.974Z,12.69
2023-01-21T07:22:16.781Z,13.30
2023-01-21T07:23:17.010Z,12.69
2023-01-21T07:24:16.308Z,12.39
2023-01-21T07:26:16.309Z,12.30
2023-01-21T07:27:16.832Z,12.39
2023-01-21T07:28:16.765Z,12.89
2023-01-21T07:29:16.535Z,14.19
2023-01-21T07:30:17.273Z,14.30
2023-01-21T07:31:17.270Z,13.60
2023-01-21T07:33:16.064Z,13.89
2023-01-21T07:34:16.331Z,15.5
2023-01-21T07:35:17.125Z,16.89
2023-01-21T07:36:16.893Z,17.70
2023-01-21T07:37:16.454Z,17.79
2023-01-21T07:38:16.911Z,18.20
2023-01-21T07:39:17.114Z,20.20
2023-01-21T07:40:16.811Z,21.70
2023-01-21T07:41:16.619Z,21
2023-01-21T07:42:16.798Z,21.39
2023-01-21T07:43:17.104Z,23
2023-01-21T07:44:16.457Z,26.70
2023-01-21T07:45:17.493Z,29.60
2023-01-21T07:46:16.618Z,30
2023-01-21T07:47:17.142Z,29.10
2023-01-21T07:48:16.411Z,29.29
2023-01-21T07:49:16.901Z,27.70
2023-01-21T07:50:16.808Z,28.79
2023-01-21T07:52:16.925Z,28.10
2023-01-21T07:53:16.189Z,27.70
2023-01-21T07:54:16.469Z,26.10
2023-01-21T07:55:17.462Z,26.29
2023-01-21T07:56:16.067Z,29
2023-01-21T07:58:17.139Z,29.70
2023-01-21T07:59:16.780Z,28.10
2023-01-21T08:00:17.189Z,29.5
2023-01-21T08:01:17.404Z,28.60
2023-01-21T08:02:17.265Z,26.39
2023-01-21T08:03:17.019Z,26
2023-01-21T08:04:16.661Z,25.10
2023-01-21T08:05:17.045Z,23.5
2023-01-21T08:06:16.800Z,22.20
2023-01-21T08:07:16.623Z,20.60
2023-01-21T08:08:16.548Z,20.20
2023-01-21T08:09:17.180Z,18
2023-01-21T08:10:16.579Z,17.79
2023-01-21T08:11:16.712Z,16.89
2023-01-21T08:12:16.497Z,15.80
2023-01-21T08:13:16.684Z,15.39
2023-01-21T08:14:17.146Z,15.60
2023-01-21T08:15:17.250Z,15.19
2023-01-21T08:16:17.032Z,16.39
2023-01-21T08:17:17.356Z,15.60
2023-01-21T08:18:16.951Z,16.60
2023-01-21T08:19:16.604Z,16.29
2023-01-21T08:20:17.096Z,16
2023-01-21T08:21:16.238Z,15.39
2023-01-21T08:22:17.082Z,14.89
2023-01-21T08:23:16.477Z,15.60
2023-01-21T08:24:17.016Z,16.20
2023-01-21T08:25:16.990Z,15.69
2023-01-21T08:26:16.664Z,15.60
2023-01-21T08:27:17.187Z,15.5
2023-01-21T08:28:16.978Z,15.10
2023-01-21T08:29:16.932Z,14.69
2023-01-21T08:30:16.869Z,14.39
2023-01-21T08:31:16.697Z,14.10
2023-01-21T08:32:16.653Z,14.69
2023-01-21T08:33:16.640Z,14.5
2023-01-21T08:34:16.975Z,14.10
2023-01-21T08:35:17.523Z,14.60
2023-01-21T08:36:16.624Z,15
2023-01-21T08:37:16.754Z,14.19
2023-01-21T08:38:16.453Z,14.60
2023-01-21T08:39:17.464Z,14
2023-01-21T08:40:16.770Z,13.80
2023-01-21T08:41:16.679Z,13
2023-01-21T08:42:17.056Z,13.39
2023-01-21T08:43:16.777Z,13.30
2023-01-21T08:44:16.610Z,13.39
2023-01-21T08:45:18.068Z,12.5
2023-01-21T08:46:16.845Z,13.19
2023-01-21T08:47:17.302Z,13.80
2023-01-21T08:48:16.787Z,13.30
2023-01-21T08:49:17.578Z,13.19
2023-01-21T08:50:16.795Z,13.39
2023-01-21T08:51:17.032Z,14
2023-01-21T08:52:17.309Z,13.5
2023-01-21T08:53:17.064Z,13.19
2023-01-21T08:55:17.433Z,13.10
2023-01-21T08:56:16.382Z,13.80
2023-01-21T08:57:16.732Z,13.69
2023-01-21T08:58:16.701Z,14.5
2023-01-21T08:59:16.747Z,13.39
2023-01-21T09:00:17.611Z,14.60
2023-01-21T09:01:17.020Z,15
2023-01-21T09:02:24.602Z,14.69
2023-01-21T09:03:17.288Z,14.39
2023-01-21T09:04:24.979Z,14.80
2023-01-21T09:05:17.150Z,15.5
2023-01-21T09:06:16.994Z,16
2023-01-21T09:08:30.663Z,16.89
2023-01-21T09:09:16.965Z,18
2023-01-21T09:10:16.398Z,18.60
2023-01-21T09:11:16.838Z,17.70
2023-01-21T09:12:17.181Z,18.39
2023-01-21T09:13:17.211Z,17.89
2023-01-21T09:14:16.784Z,18.79
2023-01-21T09:15:16.686Z,16.60
2023-01-21T09:16:17.179Z,16.10
2023-01-21T09:17:17.099Z,17
2023-01-21T09:19:16.587Z,15.69
2023-01-21T09:20:17.078Z,15.60
2023-01-21T09:21:17.099Z,16.29
2023-01-21T09:23:17.210Z,15.89
2023-01-21T09:24:16.576Z,15.10
2023-01-21T09:25:17.594Z,15.69
2023-01-21T09:26:17.263Z,16.70
2023-01-21T09:27:17.115Z,16.39
2023-01-21T09:28:16.748Z,16
2023-01-21T09:29:16.930Z,16.60
2023-01-21T09:31:16.735Z,17.20
2023-01-21T09:32:16.696Z,17.29
2023-01-21T09:33:17.359Z,17.10
2023-01-21T09:34:16.658Z,17.29
2023-01-21T09:35:17.811Z,17.89
2023-01-21T09:36:16.682Z,17.29
2023-01-21T09:37:17.174Z,18
2023-01-21T09:38:16.921Z,18.5
2023-01-21T09:39:17.124Z,18.70
2023-01-21T09:40:16.834Z,18.5
2023-01-21T09:41:16.294Z,17.10
2023-01-21T09:42:17.018Z,18.29
2023-01-21T09:43:16.349Z,18.39
2023-01-21T09:44:16.241Z,18.5
2023-01-21T09:45:17.710Z,19.20
2023-01-21T09:46:16.652Z,18.89
2023-01-21T09:47:16.120Z,18.39
2023-01-21T09:48:16.171Z,18.29
2023-01-21T09:49:16.441Z,18.10
2023-01-21T09:50:17.498Z,19.89
2023-01-21T09:51:17.149Z,20.20
2023-01-21T09:53:16.660Z,19.39
2023-01-21T09:54:16.891Z,20.5
2023-01-21T09:55:17.521Z,20.10
2023-01-21T09:56:16.904Z,19.29
2023-01-21T09:57:16.975Z,19
2023-01-21T09:58:16.811Z,19.89
2023-01-21T09:59:16.782Z,18.39
2023-01-21T10:00:17.279Z,19.10
2023-01-21T10:01:17.130Z,18.39
2023-01-21T10:02:16.694Z,17.5
2023-01-21T10:03:16.384Z,16.89
2023-01-21T10:05:17.493Z,17.70
2023-01-21T10:06:17.592Z,16.5
2023-01-21T10:07:16.891Z,16.29
2023-01-21T10:08:17.039Z,16.79
2023-01-21T10:09:16.756Z,16.20
2023-01-21T10:10:16.862Z,16.60
2023-01-21T10:11:16.871Z,17.10
2023-01-21T10:12:16.875Z,17.60
2023-01-21T10:13:16.794Z,16.29
2023-01-21T10:14:16.767Z,17.20
2023-01-21T10:15:16.776Z,16.70
2023-01-21T10:16:16.718Z,16.29
2023-01-21T10:17:17.008Z,16.20
2023-01-21T10:19:16.981Z,16.29
2023-01-21T10:20:17.208Z,16.39
2023-01-21T10:21:16.866Z,16.89
2023-01-21T10:22:16.696Z,16.20
2023-01-21T10:23:16.786Z,16.89
2023-01-21T10:24:17.231Z,17.70
2023-01-21T10:25:17.123Z,17
2023-01-21T10:26:16.959Z,17.5
2023-01-21T10:27:16.687Z,17.10
2023-01-21T10:28:17.257Z,17.60
2023-01-21T10:29:16.998Z,17.39
2023-01-21T10:30:17.060Z,17.29
2023-01-21T10:31:17.095Z,17.10
2023-01-21T10:33:16.904Z,17.20
2023-01-21T10:34:16.723Z,17.5
2023-01-21T10:35:17.238Z,17.20
2023-01-21T10:36:17.013Z,17
2023-01-21T10:37:16.833Z,17.89
2023-01-21T10:38:16.404Z,17.29
2023-01-21T10:39:17.107Z,18
2023-01-21T10:40:16.920Z,16.89
2023-01-21T10:41:16.519Z,17.79
2023-01-21T10:42:17.020Z,17.39
2023-01-21T10:43:16.736Z,19.89
2023-01-21T10:44:17.178Z,18.79
2023-01-21T10:45:18.014Z,18.39
2023-01-21T10:46:17.341Z,17.89
2023-01-21T10:47:16.768Z,18.79
2023-01-21T10:48:17.322Z,18.89
2023-01-21T10:49:16.582Z,19.5
2023-01-21T10:50:17.211Z,19.79
2023-01-21T10:51:17.044Z,18.5
2023-01-21T10:52:17.073Z,20.39
2023-01-21T10:53:16.496Z,20.29
2023-01-21T10:54:17.434Z,20.70
2023-01-21T10:55:17.389Z,20.10
2023-01-21T10:56:17.193Z,20.79
2023-01-21T10:57:17.371Z,20.5
2023-01-21T10:58:17.284Z,21.29
2023-01-21T10:59:17.165Z,21.10
2023-01-21T11:00:17.786Z,19.70
2023-01-21T11:01:16.803Z,20.79
2023-01-21T11:02:17.450Z,20.29
2023-01-21T11:03:17.296Z,19.89
2023-01-21T11:04:17.022Z,20.60
2023-01-21T11:06:17.110Z,21.10
2023-01-21T11:08:16.782Z,19.29
2023-01-21T11:09:16.915Z,20.79
2023-01-21T11:10:16.743Z,20.70
2023-01-21T11:11:16.679Z,20.5
2023-01-21T11:12:17.263Z,20.79
2023-01-21T11:13:17.136Z,21.39
2023-01-21T11:14:16.717Z,20.5
2023-01-21T11:15:21.920Z,20.70
2023-01-21T11:16:17.205Z,20.20
2023-01-21T11:17:16.921Z,20
2023-01-21T11:18:17.055Z,20.39
2023-01-21T11:19:17.234Z,20.70
2023-01-21T11:20:16.924Z,20.79
2023-01-21T11:21:21.575Z,20.10
2023-01-21T11:22:16.962Z,19.79
2023-01-21T11:23:16.687Z,20.89
2023-01-21T11:24:16.751Z,20
2023-01-21T11:25:17.884Z,20.79
2023-01-21T11:26:16.848Z,21.10
2023-01-21T11:27:17.117Z,20.89
2023-01-21T11:28:17.059Z,20.79
2023-01-21T11:29:16.845Z,20.20
2023-01-21T11:30:37.296Z,21.20
2023-01-21T11:31:16.844Z,21
2023-01-21T11:32:16.942Z,20.79
2023-01-21T11:33:16.669Z,21.29
2023-01-21T11:34:17.153Z,20.60
2023-01-21T11:35:17.125Z,20.79
2023-01-21T11:36:17.102Z,21
2023-01-21T11:37:17.319Z,21.60
2023-01-21T11:38:16.692Z,20.79
2023-01-21T11:39:17.492Z,22.5
2023-01-21T11:40:20.303Z,21.5
2023-01-21T11:41:17.340Z,22.70
2023-01-21T11:42:16.887Z,23.79
2023-01-21T11:43:16.776Z,22.89
2023-01-21T11:44:17.408Z,21.39
2023-01-21T11:45:17.593Z,22.20
2023-01-21T11:46:17.358Z,21.89
2023-01-21T11:47:16.807Z,21.10
2023-01-21T11:48:17.368Z,21
2023-01-21T11:49:35.969Z,21.60
2023-01-21T11:50:17.240Z,21.79
2023-01-21T11:51:17.001Z,20.39
2023-01-21T11:52:16.811Z,21.29
2023-01-21T11:53:17.359Z,20.29
2023-01-21T11:54:17.401Z,21.70
2023-01-21T11:55:17.284Z,22.60
2023-01-21T11:56:16.905Z,21.39
2023-01-21T11:57:16.963Z,20.39
2023-01-21T11:58:16.722Z,22.39
2023-01-21T11:59:17.373Z,21.5
2023-01-21T12:00:18.361Z,21.20
2023-01-21T12:01:38.635Z,21.89
2023-01-21T12:02:16.921Z,22.70
2023-01-21T12:03:17.140Z,22.20
2023-01-21T12:04:17.157Z,21.20
2023-01-21T12:05:17.485Z,23.20
2023-01-21T12:06:17.608Z,24.79
2023-01-21T12:07:17.485Z,23.5
2023-01-21T12:08:16.660Z,23.70
2023-01-21T12:09:17.484Z,25
2023-01-21T12:10:17.389Z,24.10
2023-01-21T12:12:17.154Z,24
2023-01-21T12:13:16.673Z,23.60
2023-01-21T12:14:17.193Z,22.70
2023-01-21T12:15:17.016Z,22
2023-01-21T12:16:16.790Z,20.79
2023-01-21T12:17:16.860Z,21.29
2023-01-21T12:18:17.698Z,20.89
2023-01-21T12:19:16.311Z,20.39
2023-01-21T12:20:17.213Z,21.10
2023-01-21T12:21:16.856Z,20.29
2023-01-21T12:22:16.658Z,21.89
2023-01-21T12:23:16.831Z,20.89
2023-01-21T12:24:16.584Z,21.39
2023-01-21T12:25:17.253Z,21.20
2023-01-21T12:26:16.771Z,20.70
2023-01-21T12:27:16.693Z,21.5
2023-01-21T12:28:16.641Z,21.79
2023-01-21T12:29:18.572Z,21.89
2023-01-21T12:30:16.870Z,22.10
2023-01-21T12:31:16.986Z,21.60
2023-01-21T12:32:16.965Z,22.70
2023-01-21T12:33:17.342Z,22.20
2023-01-21T12:34:17.120Z,21.5
2023-01-21T12:35:17.257Z,21
2023-01-21T12:36:17.211Z,21.20
2023-01-21T12:37:17.359Z,21.29
2023-01-21T12:38:17.078Z,21
2023-01-21T12:39:17.118Z,20.60
2023-01-21T12:41:17.066Z,20.29
2023-01-21T12:42:17.086Z,20.20
2023-01-21T12:43:16.951Z,21
2023-01-21T12:44:16.832Z,21.5
2023-01-21T12:45:17.220Z,22.10
2023-01-21T12:46:17.015Z,22.20
2023-01-21T12:47:17.006Z,21.60
2023-01-21T12:48:16.717Z,22.89
2023-01-21T12:49:16.960Z,23
2023-01-21T12:50:16.741Z,23.20
2023-01-21T12:51:16.859Z,22.29
2023-01-21T12:52:16.709Z,22.60
2023-01-21T12:53:16.902Z,22.89
2023-01-21T12:54:16.580Z,23.60
2023-01-21T12:55:17.702Z,28.29
2023-01-21T12:56:16.273Z,26.20
2023-01-21T12:57:17.046Z,25.70
2023-01-21T12:58:16.600Z,23.60
2023-01-21T12:59:16.814Z,23.70
2023-01-21T13:00:17.892Z,21.89
2023-01-21T13:01:17.129Z,21.10
2023-01-21T13:02:16.895Z,20.60
2023-01-21T13:03:16.898Z,21
2023-01-21T13:04:16.826Z,20.5
2023-01-21T13:05:17.808Z,20.10
2023-01-21T13:06:16.519Z,20.20
2023-01-21T13:07:17.063Z,19.39
2023-01-21T13:08:16.727Z,19.79
2023-01-21T13:09:16.766Z,19.89
2023-01-21T13:10:17.487Z,18.39
2023-01-21T13:11:17.033Z,19.20
2023-01-21T13:12:16.956Z,18.39
2023-01-21T13:13:16.840Z,18
2023-01-21T13:14:16.929Z,18.5
2023-01-21T13:15:17.443Z,18.79
2023-01-21T13:16:17.116Z,18.60
2023-01-21T13:17:17.300Z,18.20
2023-01-21T13:18:16.931Z,18.79
2023-01-21T13:19:16.902Z,18.29
2023-01-21T13:20:16.970Z,18.39
2023-01-21T13:21:16.875Z,19.5
2023-01-21T13:22:17.075Z,19.10
2023-01-21T13:24:16.800Z,19.20
2023-01-21T13:25:16.778Z,19.29
2023-01-21T13:26:17.480Z,19.20
2023-01-21T13:27:17.008Z,19.5
2023-01-21T13:28:17.112Z,19
2023-01-21T13:30:17.601Z,18.79
2023-01-21T13:31:17.028Z,18.20
2023-01-21T13:32:16.411Z,19.79
2023-01-21T13:33:16.715Z,18.70
2023-01-21T13:34:17.421Z,18.79
2023-01-21T13:35:17.485Z,18.10
2023-01-21T13:36:16.541Z,19.5
2023-01-21T13:37:17.377Z,18.89
2023-01-21T13:38:17.077Z,19.10
2023-01-21T13:39:17.001Z,19.79
2023-01-21T13:40:17.287Z,20.29
2023-01-21T13:42:16.737Z,21.79
2023-01-21T13:43:17.201Z,20.60
2023-01-21T13:44:16.985Z,21.20
2023-01-21T13:45:17.124Z,20
2023-01-21T13:47:16.728Z,19.79
2023-01-21T13:48:16.545Z,19.89